sensor_id;sensor_type;location;lat;lon;timestamp;pressure;altitude;pressure_sealevel;temperature;humidity
20027;BME280;10174;42.688;23.344;2023-11-18T00:01:33;94656.25;;;5.92;100.00
20027;BME280;10174;42.688;23.344;2023-11-18T00:03:59;94653.06;;;5.89;100.00
20027;BME280;10174;42.688;23.344;2023-11-18T00:06:25;94628.50;;;5.65;100.00
20027;BME280;10174;42.688;23.344;2023-11-18T00:08:50;94612.34;;;5.50;100.00
20027;BME280;10174;42.688;23.344;2023-11-18T00:11:16;94658.69;;;5.71;100.00
20027;BME280;10174;42.688;23.344;2023-11-18T00:13:41;94642.69;;;5.71;100.00
20027;BME280;10174;42.688;23.344;2023-11-18T00:16:10;94657.09;;;5.70;100.00
20027;BME280;10174;42.688;23.344;2023-11-18T00:18:41;94671.41;;;5.64;100.00
20027;BME280;10174;42.688;23.344;2023-11-18T00:21:07;94657.16;;;5.53;100.00
20027;BME280;10174;42.688;23.344;2023-11-18T00:23:33;94687.88;;;5.61;100.00
20027;BME280;10174;42.688;23.344;2023-11-18T00:25:59;94688.28;;;5.52;100.00
20027;BME280;10174;42.688;23.344;2023-11-18T00:28:24;94668.72;;;5.64;100.00
20027;BME280;10174;42.688;23.344;2023-11-18T00:30:49;94549.50;;;4.88;100.00
20027;BME280;10174;42.688;23.344;2023-11-18T00:33:15;94604.19;;;5.17;99.97
20027;BME280;10174;42.688;23.344;2023-11-18T00:35:40;94573.09;;;5.01;100.00
20027;BME280;10174;42.688;23.344;2023-11-18T00:38:06;94634.81;;;5.37;100.00
20027;BME280;10174;42.688;23.344;2023-11-18T00:40:31;94649.56;;;5.45;100.00
20027;BME280;10174;42.688;23.344;2023-11-18T00:42:57;94613.44;;;5.32;100.00
20027;BME280;10174;42.688;23.344;2023-11-18T00:45:23;94632.41;;;5.35;100.00
20027;BME280;10174;42.688;23.344;2023-11-18T00:47:48;94623.06;;;5.16;100.00
20027;BME280;10174;42.688;23.344;2023-11-18T00:50:14;94648.72;;;5.39;100.00
20027;BME280;10174;42.688;23.344;2023-11-18T00:52:40;94636.78;;;5.25;100.00
20027;BME280;10174;42.688;23.344;2023-11-18T00:55:07;94652.03;;;5.29;100.00
20027;BME280;10174;42.688;23.344;2023-11-18T00:57:34;94662.28;;;5.21;100.00
20027;BME280;10174;42.688;23.344;2023-11-18T01:00:00;94611.09;;;4.96;100.00
20027;BME280;10174;42.688;23.344;2023-11-18T01:02:25;94659.13;;;5.24;100.00
20027;BME280;10174;42.688;23.344;2023-11-18T01:04:51;94661.47;;;5.20;100.00
20027;BME280;10174;42.688;23.344;2023-11-18T01:07:17;94668.91;;;5.18;100.00
20027;BME280;10174;42.688;23.344;2023-11-18T01:09:42;94639.72;;;5.06;100.00
20027;BME280;10174;42.688;23.344;2023-11-18T01:12:08;94643.19;;;5.07;100.00
20027;BME280;10174;42.688;23.344;2023-11-18T01:14:38;94680.38;;;5.18;100.00
20027;BME280;10174;42.688;23.344;2023-11-18T01:17:07;94661.03;;;5.06;100.00
20027;BME280;10174;42.688;23.344;2023-11-18T01:19:33;94691.34;;;5.05;100.00
20027;BME280;10174;42.688;23.344;2023-11-18T01:22:01;94693.47;;;5.03;100.00
20027;BME280;10174;42.688;23.344;2023-11-18T01:24:30;94671.69;;;4.89;100.00
20027;BME280;10174;42.688;23.344;2023-11-18T01:26:56;94696.03;;;5.15;100.00
20027;BME280;10174;42.688;23.344;2023-11-18T01:29:22;94582.28;;;4.37;100.00
20027;BME280;10174;42.688;23.344;2023-11-18T01:31:47;94683.69;;;5.09;100.00
20027;BME280;10174;42.688;23.344;2023-11-18T01:34:13;94680.22;;;5.08;100.00
20027;BME280;10174;42.688;23.344;2023-11-18T01:36:38;94689.75;;;5.04;100.00
20027;BME280;10174;42.688;23.344;2023-11-18T01:39:04;94604.22;;;4.44;100.00
20027;BME280;10174;42.688;23.344;2023-11-18T01:41:30;94684.09;;;4.84;100.00
20027;BME280;10174;42.688;23.344;2023-11-18T01:43:57;94558.41;;;4.08;100.00
20027;BME280;10174;42.688;23.344;2023-11-18T01:46:24;94645.47;;;4.64;100.00
20027;BME280;10174;42.688;23.344;2023-11-18T01:48:50;94661.03;;;4.72;100.00
20027;BME280;10174;42.688;23.344;2023-11-18T01:51:16;94691.94;;;5.07;100.00
20027;BME280;10174;42.688;23.344;2023-11-18T01:53:47;94675.25;;;4.95;100.00
20027;BME280;10174;42.688;23.344;2023-11-18T01:56:13;94550.59;;;4.02;99.62
20027;BME280;10174;42.688;23.344;2023-11-18T01:58:40;94638.31;;;4.48;99.51
20027;BME280;10174;42.688;23.344;2023-11-18T02:01:06;94678.06;;;4.71;99.38
20027;BME280;10174;42.688;23.344;2023-11-18T02:03:34;94676.91;;;4.67;99.57
20027;BME280;10174;42.688;23.344;2023-11-18T02:06:00;94687.97;;;4.59;98.93
20027;BME280;10174;42.688;23.344;2023-11-18T02:08:25;94695.94;;;4.59;98.72
20027;BME280;10174;42.688;23.344;2023-11-18T02:10:59;94680.38;;;4.51;98.48
20027;BME280;10174;42.688;23.344;2023-11-18T02:13:34;94671.81;;;4.49;97.34
20027;BME280;10174;42.688;23.344;2023-11-18T02:16:04;94611.16;;;4.00;97.76
20027;BME280;10174;42.688;23.344;2023-11-18T02:18:30;94694.16;;;4.48;96.13
20027;BME280;10174;42.688;23.344;2023-11-18T02:20:56;94696.25;;;4.45;96.63
20027;BME280;10174;42.688;23.344;2023-11-18T02:23:28;94674.81;;;4.35;96.06
20027;BME280;10174;42.688;23.344;2023-11-18T02:25:53;94696.09;;;4.35;95.93
20027;BME280;10174;42.688;23.344;2023-11-18T02:28:21;94668.72;;;4.23;95.53
20027;BME280;10174;42.688;23.344;2023-11-18T02:30:46;94662.34;;;4.24;95.58
20027;BME280;10174;42.688;23.344;2023-11-18T02:36:34;94679.06;;;4.36;95.26
20027;BME280;10174;42.688;23.344;2023-11-18T02:39:07;94675.28;;;4.32;94.90
20027;BME280;10174;42.688;23.344;2023-11-18T02:41:38;94700.13;;;4.26;94.39
20027;BME280;10174;42.688;23.344;2023-11-18T02:44:04;94682.25;;;4.21;94.02
20027;BME280;10174;42.688;23.344;2023-11-18T02:46:36;94672.91;;;4.19;94.82
20027;BME280;10174;42.688;23.344;2023-11-18T02:49:03;94695.00;;;4.36;93.69
20027;BME280;10174;42.688;23.344;2023-11-18T02:51:29;94692.56;;;4.18;94.14
20027;BME280;10174;42.688;23.344;2023-11-18T02:53:57;94697.16;;;4.22;94.02
20027;BME280;10174;42.688;23.344;2023-11-18T02:56:22;94697.88;;;4.18;92.37
20027;BME280;10174;42.688;23.344;2023-11-18T02:58:48;94696.56;;;4.03;92.56
20027;BME280;10174;42.688;23.344;2023-11-18T03:01:13;94709.41;;;3.95;92.90
20027;BME280;10174;42.688;23.344;2023-11-18T03:03:38;94701.22;;;3.84;92.79
20027;BME280;10174;42.688;23.344;2023-11-18T03:06:04;94664.19;;;3.66;93.31
20027;BME280;10174;42.688;23.344;2023-11-18T03:08:31;94704.69;;;3.85;94.39
20027;BME280;10174;42.688;23.344;2023-11-18T03:10:56;94718.75;;;3.97;94.01
20027;BME280;10174;42.688;23.344;2023-11-18T03:13:23;94601.03;;;3.15;93.42
20027;BME280;10174;42.688;23.344;2023-11-18T03:15:50;94655.84;;;3.33;94.48
20027;BME280;10174;42.688;23.344;2023-11-18T03:18:17;94709.25;;;3.61;94.43
20027;BME280;10174;42.688;23.344;2023-11-18T03:20:42;94717.00;;;3.62;94.04
20027;BME280;10174;42.688;23.344;2023-11-18T03:23:08;94731.78;;;3.58;92.99
20027;BME280;10174;42.688;23.344;2023-11-18T03:25:34;94753.72;;;3.65;92.73
20027;BME280;10174;42.688;23.344;2023-11-18T03:27:59;94720.81;;;3.31;92.90
20027;BME280;10174;42.688;23.344;2023-11-18T03:30:25;94725.44;;;3.35;93.71
20027;BME280;10174;42.688;23.344;2023-11-18T03:32:50;94736.88;;;3.36;92.74
20027;BME280;10174;42.688;23.344;2023-11-18T03:35:16;94758.56;;;3.45;93.31
20027;BME280;10174;42.688;23.344;2023-11-18T03:37:41;94729.03;;;3.29;93.38
20027;BME280;10174;42.688;23.344;2023-11-18T03:40:08;94727.84;;;3.25;92.66
20027;BME280;10174;42.688;23.344;2023-11-18T03:42:34;94740.00;;;3.21;93.25
20027;BME280;10174;42.688;23.344;2023-11-18T03:45:01;94763.53;;;3.41;92.32
20027;BME280;10174;42.688;23.344;2023-11-18T03:47:27;94769.41;;;3.31;92.40
20027;BME280;10174;42.688;23.344;2023-11-18T03:49:52;94765.72;;;3.32;92.60
20027;BME280;10174;42.688;23.344;2023-11-18T03:52:19;94756.03;;;3.26;91.95
20027;BME280;10174;42.688;23.344;2023-11-18T03:54:45;94775.31;;;3.33;91.89
20027;BME280;10174;42.688;23.344;2023-11-18T03:57:10;94772.78;;;3.38;91.62
20027;BME280;10174;42.688;23.344;2023-11-18T03:59:35;94772.31;;;3.30;91.04
20027;BME280;10174;42.688;23.344;2023-11-18T04:02:01;94752.09;;;3.17;90.71
20027;BME280;10174;42.688;23.344;2023-11-18T04:04:26;94755.22;;;3.26;91.40
20027;BME280;10174;42.688;23.344;2023-11-18T04:06:52;94775.31;;;3.21;90.73
20027;BME280;10174;42.688;23.344;2023-11-18T04:09:18;94756.16;;;3.19;90.13
20027;BME280;10174;42.688;23.344;2023-11-18T04:11:43;94765.28;;;3.12;89.56
20027;BME280;10174;42.688;23.344;2023-11-18T04:14:10;94681.56;;;2.62;90.24
20027;BME280;10174;42.688;23.344;2023-11-18T04:16:36;94625.91;;;2.20;89.07
20027;BME280;10174;42.688;23.344;2023-11-18T04:19:03;94781.41;;;2.98;89.29
20027;BME280;10174;42.688;23.344;2023-11-18T04:21:29;94779.91;;;3.14;88.54
20027;BME280;10174;42.688;23.344;2023-11-18T04:23:54;94757.84;;;2.90;89.41
20027;BME280;10174;42.688;23.344;2023-11-18T04:26:20;94673.13;;;2.41;89.40
20027;BME280;10174;42.688;23.344;2023-11-18T04:28:46;94744.44;;;2.85;88.73
20027;BME280;10174;42.688;23.344;2023-11-18T04:31:11;94778.84;;;3.03;89.30
20027;BME280;10174;42.688;23.344;2023-11-18T04:33:37;94789.47;;;3.03;89.07
20027;BME280;10174;42.688;23.344;2023-11-18T04:36:02;94769.38;;;2.96;89.13
20027;BME280;10174;42.688;23.344;2023-11-18T04:38:30;94776.19;;;3.03;89.45
20027;BME280;10174;42.688;23.344;2023-11-18T04:40:57;94770.66;;;2.93;89.02
20027;BME280;10174;42.688;23.344;2023-11-18T04:43:23;94775.38;;;2.91;88.29
20027;BME280;10174;42.688;23.344;2023-11-18T04:45:49;94789.59;;;2.97;89.16
20027;BME280;10174;42.688;23.344;2023-11-18T04:48:14;94798.94;;;2.99;89.07
20027;BME280;10174;42.688;23.344;2023-11-18T04:50:41;94802.06;;;2.96;88.49
20027;BME280;10174;42.688;23.344;2023-11-18T04:53:07;94805.84;;;3.00;88.42
20027;BME280;10174;42.688;23.344;2023-11-18T04:55:39;94789.25;;;2.93;88.24
20027;BME280;10174;42.688;23.344;2023-11-18T04:58:05;94789.59;;;2.97;88.88
20027;BME280;10174;42.688;23.344;2023-11-18T05:00:37;94782.75;;;2.89;88.45
20027;BME280;10174;42.688;23.344;2023-11-18T05:03:07;94736.19;;;2.51;88.38
20027;BME280;10174;42.688;23.344;2023-11-18T05:05:38;94755.38;;;2.65;88.72
20027;BME280;10174;42.688;23.344;2023-11-18T05:08:04;94779.09;;;2.90;88.46
20027;BME280;10174;42.688;23.344;2023-11-18T05:10:32;94767.41;;;2.91;88.25
20027;BME280;10174;42.688;23.344;2023-11-18T05:12:58;94676.41;;;2.37;88.13
20027;BME280;10174;42.688;23.344;2023-11-18T05:15:23;94771.13;;;3.02;89.08
20027;BME280;10174;42.688;23.344;2023-11-18T05:17:53;94758.28;;;2.87;88.15
20027;BME280;10174;42.688;23.344;2023-11-18T05:20:19;94761.16;;;2.85;87.24
20027;BME280;10174;42.688;23.344;2023-11-18T05:22:45;94779.91;;;3.02;86.99
20027;BME280;10174;42.688;23.344;2023-11-18T05:25:10;94743.41;;;2.86;86.54
20027;BME280;10174;42.688;23.344;2023-11-18T05:27:37;94783.47;;;2.96;85.86
20027;BME280;10174;42.688;23.344;2023-11-18T05:30:03;94771.44;;;2.82;86.30
20027;BME280;10174;42.688;23.344;2023-11-18T05:32:29;94739.16;;;2.85;86.84
20027;BME280;10174;42.688;23.344;2023-11-18T05:34:55;94768.22;;;2.80;86.68
20027;BME280;10174;42.688;23.344;2023-11-18T05:37:23;94763.47;;;2.82;86.44
20027;BME280;10174;42.688;23.344;2023-11-18T05:39:50;94770.97;;;2.85;85.84
20027;BME280;10174;42.688;23.344;2023-11-18T05:42:27;94772.47;;;2.81;85.81
20027;BME280;10174;42.688;23.344;2023-11-18T05:44:52;94767.94;;;2.70;86.44
20027;BME280;10174;42.688;23.344;2023-11-18T05:47:25;94775.22;;;2.74;86.35
20027;BME280;10174;42.688;23.344;2023-11-18T05:49:52;94774.78;;;2.77;86.45
20027;BME280;10174;42.688;23.344;2023-11-18T05:52:17;94766.31;;;2.68;86.84
20027;BME280;10174;42.688;23.344;2023-11-18T05:54:42;94776.25;;;2.61;86.24
20027;BME280;10174;42.688;23.344;2023-11-18T05:57:08;94747.81;;;2.50;87.23
20027;BME280;10174;42.688;23.344;2023-11-18T05:59:33;94774.97;;;2.64;87.46
20027;BME280;10174;42.688;23.344;2023-11-18T06:01:59;94747.97;;;2.55;87.66
20027;BME280;10174;42.688;23.344;2023-11-18T06:04:25;94780.41;;;2.81;87.19
20027;BME280;10174;42.688;23.344;2023-11-18T06:06:50;94780.06;;;2.77;86.24
20027;BME280;10174;42.688;23.344;2023-11-18T06:09:17;94771.63;;;2.57;86.35
20027;BME280;10174;42.688;23.344;2023-11-18T06:11:47;94790.13;;;2.87;86.73
20027;BME280;10174;42.688;23.344;2023-11-18T06:14:12;94796.78;;;2.78;88.07
20027;BME280;10174;42.688;23.344;2023-11-18T06:16:38;94794.81;;;2.73;87.91
20027;BME280;10174;42.688;23.344;2023-11-18T06:19:06;94705.91;;;2.28;89.00
20027;BME280;10174;42.688;23.344;2023-11-18T06:21:32;94790.06;;;2.63;89.98
20027;BME280;10174;42.688;23.344;2023-11-18T06:23:59;94776.41;;;2.48;91.04
20027;BME280;10174;42.688;23.344;2023-11-18T06:26:25;94791.78;;;2.58;91.70
20027;BME280;10174;42.688;23.344;2023-11-18T06:28:53;94787.41;;;2.63;90.89
20027;BME280;10174;42.688;23.344;2023-11-18T06:31:19;94732.75;;;2.20;90.33
20027;BME280;10174;42.688;23.344;2023-11-18T06:33:46;94783.59;;;2.59;91.38
20027;BME280;10174;42.688;23.344;2023-11-18T06:38:48;94810.31;;;2.88;89.50
20027;BME280;10174;42.688;23.344;2023-11-18T06:41:18;94780.75;;;2.73;87.20
20027;BME280;10174;42.688;23.344;2023-11-18T06:43:45;94695.19;;;2.23;87.60
20027;BME280;10174;42.688;23.344;2023-11-18T06:46:24;94757.78;;;2.66;86.62
20027;BME280;10174;42.688;23.344;2023-11-18T06:48:53;94799.47;;;2.90;85.77
20027;BME280;10174;42.688;23.344;2023-11-18T06:51:29;94695.91;;;2.00;85.50
20027;BME280;10174;42.688;23.344;2023-11-18T06:53:55;94704.97;;;2.23;85.36
20027;BME280;10174;42.688;23.344;2023-11-18T06:56:21;94801.91;;;2.91;85.20
20027;BME280;10174;42.688;23.344;2023-11-18T06:58:46;94794.28;;;2.83;84.34
20027;BME280;10174;42.688;23.344;2023-11-18T07:01:13;94795.69;;;2.97;84.20
20027;BME280;10174;42.688;23.344;2023-11-18T07:03:40;94777.47;;;2.89;83.74
20027;BME280;10174;42.688;23.344;2023-11-18T07:06:06;94804.41;;;3.16;84.48
20027;BME280;10174;42.688;23.344;2023-11-18T07:08:32;94809.38;;;2.82;82.46
20027;BME280;10174;42.688;23.344;2023-11-18T07:11:00;94822.69;;;2.94;83.31
20027;BME280;10174;42.688;23.344;2023-11-18T07:13:27;94801.84;;;2.67;84.18
20027;BME280;10174;42.688;23.344;2023-11-18T07:15:52;94812.91;;;2.64;84.58
20027;BME280;10174;42.688;23.344;2023-11-18T07:18:19;94834.53;;;2.80;85.15
20027;BME280;10174;42.688;23.344;2023-11-18T07:20:48;94813.44;;;2.85;84.93
20027;BME280;10174;42.688;23.344;2023-11-18T07:23:13;94811.13;;;2.77;84.88
20027;BME280;10174;42.688;23.344;2023-11-18T07:25:39;94824.03;;;2.85;85.64
20027;BME280;10174;42.688;23.344;2023-11-18T07:28:04;94807.16;;;2.67;87.09
20027;BME280;10174;42.688;23.344;2023-11-18T07:30:30;94796.84;;;2.59;85.85
20027;BME280;10174;42.688;23.344;2023-11-18T07:32:56;94819.59;;;2.67;86.28
20027;BME280;10174;42.688;23.344;2023-11-18T07:35:25;94769.09;;;2.31;87.35
20027;BME280;10174;42.688;23.344;2023-11-18T07:37:53;94817.78;;;2.67;86.51
20027;BME280;10174;42.688;23.344;2023-11-18T07:40:18;94848.31;;;2.70;85.99
20027;BME280;10174;42.688;23.344;2023-11-18T07:42:56;94833.75;;;2.91;85.87
20027;BME280;10174;42.688;23.344;2023-11-18T07:45:22;94832.84;;;2.97;85.34
20027;BME280;10174;42.688;23.344;2023-11-18T07:47:51;94812.44;;;2.98;84.52
20027;BME280;10174;42.688;23.344;2023-11-18T07:50:20;94829.22;;;2.80;84.06
20027;BME280;10174;42.688;23.344;2023-11-18T07:52:50;94806.78;;;2.64;85.12
20027;BME280;10174;42.688;23.344;2023-11-18T07:55:16;94789.81;;;2.53;85.22
20027;BME280;10174;42.688;23.344;2023-11-18T07:57:42;94702.97;;;2.06;84.85
20027;BME280;10174;42.688;23.344;2023-11-18T08:00:08;94818.34;;;2.70;85.24
20027;BME280;10174;42.688;23.344;2023-11-18T08:02:37;94857.13;;;2.71;85.00
20027;BME280;10174;42.688;23.344;2023-11-18T08:05:06;94851.47;;;2.79;85.09
20027;BME280;10174;42.688;23.344;2023-11-18T08:07:38;94814.97;;;2.62;84.50
20027;BME280;10174;42.688;23.344;2023-11-18T08:10:04;94832.78;;;2.74;84.96
20027;BME280;10174;42.688;23.344;2023-11-18T08:12:33;94823.78;;;2.75;84.73
20027;BME280;10174;42.688;23.344;2023-11-18T08:14:59;94842.09;;;2.64;84.08
20027;BME280;10174;42.688;23.344;2023-11-18T08:17:25;94850.06;;;2.64;84.35
20027;BME280;10174;42.688;23.344;2023-11-18T08:19:52;94807.66;;;2.46;84.20
20027;BME280;10174;42.688;23.344;2023-11-18T08:22:18;94833.25;;;2.71;84.06
20027;BME280;10174;42.688;23.344;2023-11-18T08:24:44;94749.06;;;2.36;83.44
20027;BME280;10174;42.688;23.344;2023-11-18T08:27:10;94823.59;;;2.88;83.10
20027;BME280;10174;42.688;23.344;2023-11-18T08:29:36;94812.59;;;2.73;82.59
20027;BME280;10174;42.688;23.344;2023-11-18T08:32:04;94840.69;;;2.92;83.73
20027;BME280;10174;42.688;23.344;2023-11-18T08:34:30;94825.53;;;2.81;82.38
20027;BME280;10174;42.688;23.344;2023-11-18T08:36:58;94857.00;;;3.08;83.25
20027;BME280;10174;42.688;23.344;2023-11-18T08:39:25;94863.34;;;3.07;82.47
20027;BME280;10174;42.688;23.344;2023-11-18T08:41:51;94855.06;;;3.15;82.39
20027;BME280;10174;42.688;23.344;2023-11-18T08:44:16;94871.47;;;2.81;82.32
20027;BME280;10174;42.688;23.344;2023-11-18T08:46:43;94855.13;;;2.66;82.85
20027;BME280;10174;42.688;23.344;2023-11-18T08:49:08;94861.34;;;2.90;82.83
20027;BME280;10174;42.688;23.344;2023-11-18T08:51:37;94863.78;;;3.03;82.42
20027;BME280;10174;42.688;23.344;2023-11-18T08:54:04;94867.88;;;3.18;82.06
20027;BME280;10174;42.688;23.344;2023-11-18T08:56:51;94761.00;;;2.26;82.20
20027;BME280;10174;42.688;23.344;2023-11-18T08:59:21;94866.81;;;2.77;82.38
20027;BME280;10174;42.688;23.344;2023-11-18T09:01:55;94861.75;;;2.75;83.60
20027;BME280;10174;42.688;23.344;2023-11-18T09:04:26;94860.16;;;2.86;83.44
20027;BME280;10174;42.688;23.344;2023-11-18T09:06:52;94865.59;;;2.91;83.71
20027;BME280;10174;42.688;23.344;2023-11-18T09:09:20;94848.38;;;2.82;83.49
20027;BME280;10174;42.688;23.344;2023-11-18T09:11:54;94864.06;;;2.83;83.20
20027;BME280;10174;42.688;23.344;2023-11-18T09:14:21;94860.25;;;2.79;84.09
20027;BME280;10174;42.688;23.344;2023-11-18T09:16:47;94862.81;;;2.86;83.50
20027;BME280;10174;42.688;23.344;2023-11-18T09:19:13;94719.59;;;1.95;84.12
20027;BME280;10174;42.688;23.344;2023-11-18T09:21:39;94838.44;;;2.77;83.42
20027;BME280;10174;42.688;23.344;2023-11-18T09:24:05;94853.50;;;2.95;83.36
20027;BME280;10174;42.688;23.344;2023-11-18T09:26:33;94836.63;;;2.90;82.49
20027;BME280;10174;42.688;23.344;2023-11-18T09:29:00;94835.22;;;2.87;82.26
20027;BME280;10174;42.688;23.344;2023-11-18T09:31:26;94859.38;;;2.97;81.81
20027;BME280;10174;42.688;23.344;2023-11-18T09:33:52;94835.72;;;2.96;82.48
20027;BME280;10174;42.688;23.344;2023-11-18T09:36:19;94828.31;;;2.86;82.70
20027;BME280;10174;42.688;23.344;2023-11-18T09:38:45;94812.03;;;2.82;82.87
20027;BME280;10174;42.688;23.344;2023-11-18T09:41:15;94828.31;;;2.86;82.00
20027;BME280;10174;42.688;23.344;2023-11-18T09:43:42;94826.50;;;2.98;82.20
20027;BME280;10174;42.688;23.344;2023-11-18T09:46:32;94838.53;;;3.01;82.09
20027;BME280;10174;42.688;23.344;2023-11-18T09:49:06;94857.72;;;3.15;81.53
20027;BME280;10174;42.688;23.344;2023-11-18T09:51:41;94761.47;;;2.65;80.74
20027;BME280;10174;42.688;23.344;2023-11-18T09:54:18;94774.50;;;2.67;81.44
20027;BME280;10174;42.688;23.344;2023-11-18T09:59:51;94816.66;;;2.87;80.33
20027;BME280;10174;42.688;23.344;2023-11-18T10:02:22;94758.66;;;2.48;79.94
20027;BME280;10174;42.688;23.344;2023-11-18T10:04:49;94814.78;;;2.76;80.58
20027;BME280;10174;42.688;23.344;2023-11-18T10:07:16;94850.56;;;3.15;80.60
20027;BME280;10174;42.688;23.344;2023-11-18T10:09:45;94839.50;;;2.88;81.14
20027;BME280;10174;42.688;23.344;2023-11-18T10:12:11;94796.03;;;2.89;81.10
20027;BME280;10174;42.688;23.344;2023-11-18T10:14:42;94827.72;;;2.84;81.27
20027;BME280;10174;42.688;23.344;2023-11-18T10:17:08;94866.44;;;2.92;80.63
20027;BME280;10174;42.688;23.344;2023-11-18T10:19:51;94839.78;;;2.98;81.75
20027;BME280;10174;42.688;23.344;2023-11-18T10:22:29;94841.03;;;2.96;81.13
20027;BME280;10174;42.688;23.344;2023-11-18T10:24:57;94852.16;;;3.05;81.08
20027;BME280;10174;42.688;23.344;2023-11-18T10:27:29;94877.22;;;3.09;80.46
20027;BME280;10174;42.688;23.344;2023-11-18T10:30:05;94845.59;;;3.19;79.70
20027;BME280;10174;42.688;23.344;2023-11-18T10:32:35;94846.78;;;2.93;79.99
20027;BME280;10174;42.688;23.344;2023-11-18T10:35:01;94837.13;;;2.98;79.83
20027;BME280;10174;42.688;23.344;2023-11-18T10:37:31;94839.50;;;2.88;79.65
20027;BME280;10174;42.688;23.344;2023-11-18T10:39:56;94821.28;;;2.80;79.37
20027;BME280;10174;42.688;23.344;2023-11-18T10:42:25;94847.19;;;2.96;79.56
20027;BME280;10174;42.688;23.344;2023-11-18T10:44:55;94852.03;;;2.99;79.23
20027;BME280;10174;42.688;23.344;2023-11-18T10:47:27;94856.88;;;3.02;79.30
20027;BME280;10174;42.688;23.344;2023-11-18T10:49:54;94845.81;;;3.06;79.52
20027;BME280;10174;42.688;23.344;2023-11-18T10:52:22;94827.81;;;3.08;79.58
20027;BME280;10174;42.688;23.344;2023-11-18T10:54:57;94830.13;;;3.16;78.80
20027;BME280;10174;42.688;23.344;2023-11-18T10:57:24;94851.03;;;3.24;78.99
20027;BME280;10174;42.688;23.344;2023-11-18T10:59:59;94858.88;;;3.19;78.57
20027;BME280;10174;42.688;23.344;2023-11-18T11:02:25;94837.59;;;2.95;79.58
20027;BME280;10174;42.688;23.344;2023-11-18T11:04:50;94832.41;;;3.00;79.36
20027;BME280;10174;42.688;23.344;2023-11-18T11:07:17;94816.25;;;3.02;80.03
20027;BME280;10174;42.688;23.344;2023-11-18T11:09:44;94816.25;;;2.90;79.81
20027;BME280;10174;42.688;23.344;2023-11-18T11:12:11;94822.22;;;2.97;79.95
20027;BME280;10174;42.688;23.344;2023-11-18T11:14:57;94824.03;;;2.85;80.12
20027;BME280;10174;42.688;23.344;2023-11-18T11:17:27;94844.06;;;2.99;80.36
20027;BME280;10174;42.688;23.344;2023-11-18T11:20:05;94825.22;;;2.89;80.09
20027;BME280;10174;42.688;23.344;2023-11-18T11:25:35;94788.06;;;2.89;79.39
20027;BME280;10174;42.688;23.344;2023-11-18T11:30:50;94843.72;;;3.08;79.49
20027;BME280;10174;42.688;23.344;2023-11-18T11:35:56;94798.31;;;2.85;78.89
20027;BME280;10174;42.688;23.344;2023-11-18T11:38:24;94824.00;;;3.15;79.46
20027;BME280;10174;42.688;23.344;2023-11-18T11:40:53;94826.88;;;3.14;80.00
20027;BME280;10174;42.688;23.344;2023-11-18T11:43:20;94831.75;;;3.17;79.34
20027;BME280;10174;42.688;23.344;2023-11-18T11:45:53;94811.53;;;3.04;78.98
20027;BME280;10174;42.688;23.344;2023-11-18T11:48:22;94836.00;;;3.06;79.93
20027;BME280;10174;42.688;23.344;2023-11-18T11:53:40;94787.16;;;2.95;79.35
20027;BME280;10174;42.688;23.344;2023-11-18T11:56:11;94818.81;;;3.09;79.97
20027;BME280;10174;42.688;23.344;2023-11-18T11:58:41;94725.25;;;2.47;80.21
20027;BME280;10174;42.688;23.344;2023-11-18T12:01:21;94824.72;;;3.23;79.69
20027;BME280;10174;42.688;23.344;2023-11-18T12:03:49;94800.47;;;3.07;79.79
20027;BME280;10174;42.688;23.344;2023-11-18T12:06:21;94829.66;;;3.19;79.36
20027;BME280;10174;42.688;23.344;2023-11-18T12:08:51;94827.47;;;3.04;80.05
20027;BME280;10174;42.688;23.344;2023-11-18T12:11:17;94789.97;;;2.70;80.23
20027;BME280;10174;42.688;23.344;2023-11-18T12:14:02;94810.47;;;2.93;79.83
20027;BME280;10174;42.688;23.344;2023-11-18T12:17:14;94848.28;;;3.31;79.53
20027;BME280;10174;42.688;23.344;2023-11-18T12:19:46;94801.97;;;3.15;79.69
20027;BME280;10174;42.688;23.344;2023-11-18T12:22:20;94822.78;;;3.42;79.57
20027;BME280;10174;42.688;23.344;2023-11-18T12:30:37;94838.00;;;3.34;79.34
20027;BME280;10174;42.688;23.344;2023-11-18T12:33:05;94820.81;;;3.37;78.94
20027;BME280;10174;42.688;23.344;2023-11-18T12:41:36;94824.41;;;3.43;79.21
20027;BME280;10174;42.688;23.344;2023-11-18T12:46:59;94824.47;;;3.12;80.14
20027;BME280;10174;42.688;23.344;2023-11-18T12:49:44;94836.25;;;3.28;79.40
20027;BME280;10174;42.688;23.344;2023-11-18T12:52:15;94815.34;;;3.20;79.89
20027;BME280;10174;42.688;23.344;2023-11-18T12:54:44;94855.22;;;3.55;79.60
20027;BME280;10174;42.688;23.344;2023-11-18T12:57:10;94834.34;;;3.59;79.04
20027;BME280;10174;42.688;23.344;2023-11-18T12:59:39;94816.06;;;3.27;78.70
20027;BME280;10174;42.688;23.344;2023-11-18T13:02:11;94823.22;;;3.38;79.33
20027;BME280;10174;42.688;23.344;2023-11-18T13:04:45;94830.88;;;3.47;79.41
20027;BME280;10174;42.688;23.344;2023-11-18T13:07:14;94826.34;;;3.47;78.96
20027;BME280;10174;42.688;23.344;2023-11-18T13:09:40;94844.47;;;3.38;79.45
20027;BME280;10174;42.688;23.344;2023-11-18T13:12:08;94847.34;;;3.25;79.59
20027;BME280;10174;42.688;23.344;2023-11-18T13:14:35;94820.69;;;3.32;79.38
20027;BME280;10174;42.688;23.344;2023-11-18T13:17:15;94851.41;;;3.39;80.62
20027;BME280;10174;42.688;23.344;2023-11-18T13:19:41;94862.22;;;3.26;80.99
20027;BME280;10174;42.688;23.344;2023-11-18T13:22:11;94839.06;;;3.33;81.38
20027;BME280;10174;42.688;23.344;2023-11-18T13:24:41;94730.34;;;2.73;81.11
20027;BME280;10174;42.688;23.344;2023-11-18T13:27:09;94739.28;;;2.48;81.68
20027;BME280;10174;42.688;23.344;2023-11-18T13:29:36;94820.19;;;2.99;82.70
20027;BME280;10174;42.688;23.344;2023-11-18T13:32:05;94874.03;;;3.30;82.38
20027;BME280;10174;42.688;23.344;2023-11-18T13:34:33;94855.38;;;3.07;83.20
20027;BME280;10174;42.688;23.344;2023-11-18T13:37:01;94876.03;;;3.05;84.83